createdAt,value
2019-03-06T00:01:53.203Z,4.30
2019-03-06T00:04:24.010Z,4.40
2019-03-06T00:06:52.175Z,4.40
2019-03-06T00:09:20.114Z,4.40
2019-03-06T00:11:49.502Z,4.40
2019-03-06T00:14:19.022Z,4.60
2019-03-06T00:17:39.670Z,4.40
2019-03-06T00:20:10.580Z,4.30
2019-03-06T00:22:42.071Z,4.40
2019-03-06T00:25:22.675Z,4.40
2019-03-06T00:27:50.639Z,4.40
2019-03-06T00:30:19.692Z,4.30
2019-03-06T00:32:48.081Z,4.40
2019-03-06T00:35:24.867Z,4.30
2019-03-06T00:37:55.358Z,4.30
2019-03-06T00:40:37.435Z,4.10
2019-03-06T00:43:05.994Z,4.30
2019-03-06T00:45:39.678Z,4.30
2019-03-06T00:48:08.143Z,4.50
2019-03-06T00:50:37.560Z,4.40
2019-03-06T00:53:05.532Z,4.60
2019-03-06T00:55:44.769Z,4.40
2019-03-06T00:58:12.956Z,4.70
2019-03-06T01:00:41.207Z,4.50
2019-03-06T01:03:10.227Z,4.50
2019-03-06T01:05:38.853Z,4.50
2019-03-06T01:08:06.974Z,4.50
2019-03-06T01:10:35.253Z,4.50
2019-03-06T01:13:03.400Z,4.40
2019-03-06T01:15:32.610Z,4.40
2019-03-06T01:18:03.265Z,4.50
2019-03-06T01:20:31.488Z,4.40
2019-03-06T01:22:59.557Z,4.40
2019-03-06T01:25:29.316Z,4.50
2019-03-06T01:27:58.103Z,4.40
2019-03-06T01:30:27.114Z,4.50
2019-03-06T01:33:01.043Z,4.60
2019-03-06T01:35:45.895Z,4.50
2019-03-06T01:38:45.845Z,4.50
2019-03-06T01:41:31.431Z,4.50
2019-03-06T01:44:21.697Z,4.40
2019-03-06T01:46:50.163Z,4.40
2019-03-06T01:49:24.351Z,4.40
2019-03-06T01:51:52.899Z,4.40
2019-03-06T01:54:21.497Z,4.50
2019-03-06T01:56:50.034Z,4.40
2019-03-06T01:59:20.458Z,4.40
2019-03-06T02:01:49.582Z,4.40
2019-03-06T02:04:25.181Z,4.40
2019-03-06T02:06:54.819Z,4.30
2019-03-06T02:09:26.891Z,4.30
2019-03-06T02:11:55.263Z,4.30
2019-03-06T02:14:23.276Z,4.30
2019-03-06T02:16:51.795Z,4.30
2019-03-06T02:19:39.932Z,4.30
2019-03-06T02:22:08.892Z,4.30
2019-03-06T02:24:39.245Z,4.30
2019-03-06T02:27:07.632Z,4.30
2019-03-06T02:29:36.300Z,4.50
2019-03-06T02:32:05.366Z,4.30
2019-03-06T02:34:41.809Z,4.30
2019-03-06T02:37:10.038Z,4.40
2019-03-06T02:39:38.633Z,4.40
2019-03-06T02:42:11.864Z,4.30
2019-03-06T02:44:40.245Z,4.40
2019-03-06T02:47:08.974Z,4.40
2019-03-06T02:49:45.257Z,4.40
2019-03-06T02:52:15.666Z,4.40
2019-03-06T02:54:44.446Z,4.40
2019-03-06T02:57:13.163Z,4.40
2019-03-06T03:00:11.930Z,4.40
2019-03-06T03:02:58.237Z,4.40
2019-03-06T03:05:34.298Z,4.40
2019-03-06T03:08:08.813Z,4.40
2019-03-06T03:10:37.012Z,4.40
2019-03-06T03:13:07.143Z,4.40
2019-03-06T03:15:35.519Z,4.40
2019-03-06T03:18:04.028Z,4.40
2019-03-06T03:20:37.349Z,4.40
2019-03-06T03:23:08.256Z,4.40
2019-03-06T03:25:36.669Z,4.40
2019-03-06T03:28:07.857Z,4.50
2019-03-06T03:30:35.640Z,4.40
2019-03-06T03:33:03.414Z,4.30
2019-03-06T03:35:35.218Z,4.20
2019-03-06T03:38:03.356Z,4.10
2019-03-06T03:40:31.207Z,3.80
2019-03-06T03:43:00.848Z,3.70
2019-03-06T03:45:28.908Z,3.80
2019-03-06T03:47:57.811Z,3.50
2019-03-06T03:50:26.280Z,3.50
2019-03-06T03:52:54.305Z,3.40
2019-03-06T03:55:22.650Z,3.40
2019-03-06T03:57:50.792Z,3.40
2019-03-06T04:00:19.097Z,3.40
2019-03-06T04:02:47.167Z,3.30
2019-03-06T04:05:15.436Z,3.30
2019-03-06T04:07:43.441Z,3.20
2019-03-06T04:10:12.282Z,3.20
2019-03-06T04:12:40.494Z,3.20
2019-03-06T04:15:09.285Z,3.20
2019-03-06T04:17:37.384Z,3.10
2019-03-06T04:20:06.085Z,3.10
2019-03-06T04:22:34.023Z,3.10
2019-03-06T04:25:03.168Z,3.10
2019-03-06T04:27:31.393Z,3.10
2019-03-06T04:29:59.786Z,3.10
2019-03-06T04:32:27.613Z,3.10
2019-03-06T04:34:55.730Z,3.10
2019-03-06T04:37:29.734Z,3.20
2019-03-06T04:39:58.523Z,3.30
2019-03-06T04:42:30.501Z,3.10
2019-03-06T04:44:59.996Z,3.10
2019-03-06T04:47:29.298Z,3.10
2019-03-06T04:50:01.454Z,3.10
2019-03-06T04:52:34.880Z,3.10
2019-03-06T04:55:03.651Z,3.10
2019-03-06T04:57:37.897Z,3.00
2019-03-06T05:00:07.566Z,3.00
2019-03-06T05:02:38.877Z,3.00
2019-03-06T05:05:07.652Z,3.00
2019-03-06T05:07:36.103Z,3.00
2019-03-06T05:10:04.689Z,3.00
2019-03-06T05:12:34.082Z,3.10
2019-03-06T05:15:02.485Z,3.10
2019-03-06T05:17:47.825Z,2.90
2019-03-06T05:20:17.115Z,2.90
2019-03-06T05:22:46.078Z,3.00
2019-03-06T05:25:14.617Z,3.00
2019-03-06T05:27:43.694Z,2.90
2019-03-06T05:30:11.798Z,2.90
2019-03-06T05:32:39.589Z,2.90
2019-03-06T05:35:34.921Z,2.90
2019-03-06T05:38:06.383Z,2.90
2019-03-06T05:40:34.086Z,3.00
2019-03-06T05:43:01.793Z,3.00
2019-03-06T05:45:29.574Z,3.00
2019-03-06T05:47:57.311Z,3.00
2019-03-06T05:50:25.005Z,3.00
2019-03-06T05:52:52.649Z,3.00
2019-03-06T05:55:20.432Z,3.10
2019-03-06T05:57:48.175Z,3.10
2019-03-06T06:00:17.124Z,3.10
2019-03-06T06:02:44.946Z,3.10
2019-03-06T06:05:13.130Z,3.10
2019-03-06T06:07:42.287Z,3.10
2019-03-06T06:10:10.363Z,3.10
2019-03-06T06:12:38.325Z,3.10
2019-03-06T06:15:07.451Z,3.20
2019-03-06T06:17:35.229Z,3.20
2019-03-06T06:20:03.324Z,3.20
2019-03-06T06:22:59.069Z,3.20
2019-03-06T06:25:27.672Z,3.20
2019-03-06T06:31:52.570Z,3.10
2019-03-06T06:34:20.320Z,3.20
2019-03-06T06:36:47.942Z,3.20
2019-03-06T06:39:15.838Z,3.20
2019-03-06T06:41:45.874Z,3.20
2019-03-06T06:44:13.528Z,3.20
2019-03-06T06:46:43.349Z,3.20
2019-03-06T06:49:10.915Z,3.20
2019-03-06T06:52:25.718Z,3.20
2019-03-06T06:55:20.284Z,3.20
2019-03-06T06:58:31.369Z,3.30
2019-03-06T07:01:30.453Z,3.30
2019-03-06T07:05:06.797Z,3.30
2019-03-06T07:07:55.033Z,3.30
2019-03-06T07:10:57.237Z,3.20
2019-03-06T07:13:51.720Z,3.30
2019-03-06T07:16:45.135Z,3.30
2019-03-06T07:19:23.338Z,3.30
2019-03-06T07:22:22.341Z,3.30
2019-03-06T07:25:18.484Z,3.30
2019-03-06T07:27:59.349Z,3.30
2019-03-06T07:30:48.060Z,3.30
2019-03-06T07:33:41.116Z,3.30
2019-03-06T07:36:31.034Z,3.30
2019-03-06T07:39:15.485Z,3.30
2019-03-06T07:42:01.500Z,3.40
2019-03-06T07:44:48.552Z,3.40
2019-03-06T07:47:32.125Z,3.40
2019-03-06T07:50:18.180Z,3.40
2019-03-06T07:53:49.888Z,3.50
2019-03-06T07:56:25.470Z,3.50
2019-03-06T07:58:54.440Z,3.60
2019-03-06T08:01:24.082Z,3.70
2019-03-06T08:04:07.041Z,3.70
2019-03-06T08:06:34.850Z,3.70
2019-03-06T08:09:03.326Z,3.70
2019-03-06T08:11:39.194Z,3.70
2019-03-06T08:14:26.434Z,3.80
2019-03-06T08:17:04.049Z,3.80
2019-03-06T08:19:54.143Z,3.80
2019-03-06T08:22:50.645Z,3.80
2019-03-06T08:25:31.283Z,3.90
2019-03-06T08:27:59.145Z,3.90
2019-03-06T08:30:28.807Z,3.90
2019-03-06T08:32:56.602Z,3.90
2019-03-06T08:35:24.418Z,4.00
2019-03-06T08:37:52.215Z,3.90
2019-03-06T08:40:22.229Z,3.90
2019-03-06T08:42:50.492Z,3.90
2019-03-06T08:45:20.022Z,3.90
2019-03-06T08:48:00.207Z,4.00
2019-03-06T08:50:53.353Z,4.10
2019-03-06T08:53:29.287Z,4.20
2019-03-06T08:56:22.779Z,4.40
2019-03-06T08:59:11.211Z,4.50
2019-03-06T09:02:16.094Z,4.60
2019-03-06T09:05:00.443Z,4.60
2019-03-06T09:07:45.972Z,4.70
2019-03-06T09:10:32.091Z,4.90
2019-03-06T09:13:12.329Z,5.00
2019-03-06T09:15:55.210Z,5.10
2019-03-06T09:18:41.561Z,5.20
2019-03-06T09:21:40.880Z,5.40
2019-03-06T09:24:29.277Z,5.60
2019-03-06T09:27:14.721Z,5.90
2019-03-06T09:30:04.976Z,6.20
2019-03-06T09:32:54.759Z,6.30
2019-03-06T09:35:40.606Z,6.40
2019-03-06T09:38:30.794Z,6.50
2019-03-06T09:41:18.619Z,6.40
2019-03-06T09:44:06.525Z,6.50
2019-03-06T09:46:57.366Z,6.40
2019-03-06T09:49:47.743Z,6.30
2019-03-06T09:52:33.761Z,6.30
2019-03-06T09:55:21.038Z,6.20
2019-03-06T09:58:20.525Z,6.10
2019-03-06T10:01:06.451Z,6.10
2019-03-06T10:03:45.535Z,6.00
2019-03-06T10:06:31.235Z,6.00
2019-03-06T10:09:16.938Z,5.90
2019-03-06T10:12:04.149Z,5.80
2019-03-06T10:14:49.216Z,5.80
2019-03-06T10:17:30.320Z,5.90
2019-03-06T10:20:02.448Z,5.90
2019-03-06T10:22:30.637Z,6.10
2019-03-06T10:24:58.692Z,6.10
2019-03-06T10:27:26.762Z,6.10
2019-03-06T10:29:55.437Z,6.20
2019-03-06T10:32:24.762Z,6.10
2019-03-06T10:34:52.568Z,6.10
2019-03-06T10:37:22.260Z,6.00
2019-03-06T10:39:50.725Z,6.00
2019-03-06T10:42:18.836Z,6.10
2019-03-06T10:44:49.300Z,6.00
2019-03-06T10:47:17.101Z,6.00
2019-03-06T10:49:44.920Z,6.00
2019-03-06T10:52:14.761Z,6.20
2019-03-06T10:54:44.925Z,6.30
2019-03-06T10:57:12.967Z,6.30
2019-03-06T10:59:41.116Z,6.40
2019-03-06T11:02:11.384Z,6.50
2019-03-06T11:05:01.891Z,6.70
2019-03-06T11:07:30.464Z,6.80
2019-03-06T11:09:59.746Z,6.90
2019-03-06T11:12:28.227Z,6.90
2019-03-06T11:14:58.599Z,7.00
2019-03-06T11:17:26.663Z,7.00
2019-03-06T11:19:57.037Z,7.00
2019-03-06T11:22:25.545Z,7.00
2019-03-06T11:24:53.909Z,7.00
2019-03-06T11:27:21.970Z,7.10
2019-03-06T11:29:50.060Z,7.10
2019-03-06T11:32:18.059Z,7.30
2019-03-06T11:34:46.896Z,7.30
2019-03-06T11:37:17.035Z,7.40
2019-03-06T11:39:45.681Z,7.40
2019-03-06T11:42:14.036Z,7.40
2019-03-06T11:44:41.933Z,7.40
2019-03-06T11:47:10.040Z,7.40
2019-03-06T11:49:38.559Z,7.60
2019-03-06T11:52:06.626Z,7.50
2019-03-06T11:54:36.926Z,7.30
2019-03-06T11:57:05.136Z,7.20
2019-03-06T11:59:33.188Z,7.00
2019-03-06T12:02:01.425Z,7.30
2019-03-06T12:04:29.332Z,7.30
2019-03-06T12:06:57.622Z,7.30
2019-03-06T12:09:30.904Z,7.50
2019-03-06T12:12:01.863Z,7.80
2019-03-06T12:14:34.608Z,7.80
2019-03-06T12:17:03.281Z,8.00
2019-03-06T12:19:33.178Z,8.10
2019-03-06T12:22:01.923Z,7.90
2019-03-06T12:24:30.745Z,8.00
2019-03-06T12:26:58.905Z,8.00
2019-03-06T12:29:27.904Z,8.20
2019-03-06T12:31:58.681Z,8.30
2019-03-06T12:34:29.523Z,8.20
2019-03-06T12:36:57.349Z,8.10
2019-03-06T12:39:27.893Z,8.10
2019-03-06T12:42:13.987Z,7.90
2019-03-06T12:44:37.022Z,7.90
2019-03-06T12:47:05.830Z,7.70
2019-03-06T12:49:33.864Z,7.60
2019-03-06T12:52:01.956Z,7.50
2019-03-06T12:54:30.678Z,7.50
2019-03-06T12:56:59.181Z,7.40
2019-03-06T12:59:27.523Z,7.40
2019-03-06T13:01:55.533Z,7.30
2019-03-06T13:04:24.930Z,7.50
2019-03-06T13:06:53.991Z,7.50
2019-03-06T13:09:24.063Z,7.70
2019-03-06T13:11:52.229Z,7.80
2019-03-06T13:14:20.874Z,8.00
2019-03-06T13:16:49.434Z,8.20
2019-03-06T13:19:18.091Z,8.30
2019-03-06T13:21:46.113Z,8.10
2019-03-06T13:24:14.762Z,8.20
2019-03-06T13:26:42.870Z,8.00
2019-03-06T13:29:10.891Z,7.90
2019-03-06T13:31:42.566Z,7.90
2019-03-06T13:34:18.836Z,7.90
2019-03-06T13:36:46.529Z,7.90
2019-03-06T13:39:14.186Z,8.00
2019-03-06T13:41:41.775Z,8.00
2019-03-06T13:44:09.797Z,8.20
2019-03-06T13:46:37.555Z,8.30
2019-03-06T13:49:05.141Z,8.50
2019-03-06T13:51:33.073Z,8.50
2019-03-06T13:54:00.897Z,8.50
2019-03-06T13:56:28.658Z,8.40
2019-03-06T13:58:56.311Z,8.30
2019-03-06T14:01:24.015Z,8.40
2019-03-06T14:03:51.878Z,8.40
2019-03-06T14:06:19.568Z,8.40
2019-03-06T14:08:47.252Z,8.40
2019-03-06T14:11:14.983Z,8.50
2019-03-06T14:13:42.823Z,8.50
2019-03-06T14:16:10.682Z,8.50
2019-03-06T14:18:38.612Z,8.50
2019-03-06T14:21:07.549Z,8.40
2019-03-06T14:23:35.551Z,8.40
2019-03-06T14:26:06.441Z,8.40
2019-03-06T14:28:35.933Z,8.30
2019-03-06T14:31:03.708Z,8.20
2019-03-06T14:33:31.597Z,8.10
2019-03-06T14:36:03.003Z,8.20
2019-03-06T14:38:31.160Z,8.20
2019-03-06T14:41:00.085Z,8.10
2019-03-06T14:43:28.141Z,7.90
2019-03-06T14:45:56.051Z,7.80
2019-03-06T14:48:27.113Z,7.70
2019-03-06T14:50:54.823Z,7.70
2019-03-06T14:53:22.972Z,7.80
2019-03-06T14:55:50.894Z,7.80
2019-03-06T14:58:19.767Z,7.80
2019-03-06T15:00:47.836Z,7.70
2019-03-06T15:03:16.096Z,7.70
2019-03-06T15:05:47.020Z,7.60
2019-03-06T15:08:14.128Z,7.50
2019-03-06T15:10:47.318Z,7.10
2019-03-06T15:13:55.624Z,7.30
2019-03-06T15:16:24.258Z,7.30
2019-03-06T15:18:55.605Z,7.10
2019-03-06T15:21:23.444Z,7.00
2019-03-06T15:23:51.851Z,6.90
2019-03-06T15:26:19.790Z,6.80
2019-03-06T15:28:48.194Z,6.80
2019-03-06T15:31:16.090Z,6.70
2019-03-06T15:33:44.778Z,6.60
2019-03-06T15:36:12.992Z,6.50
2019-03-06T15:38:41.113Z,6.40
2019-03-06T15:41:09.026Z,6.40
2019-03-06T15:43:36.750Z,6.30
2019-03-06T15:46:04.683Z,6.20
2019-03-06T15:48:32.700Z,6.00
2019-03-06T15:51:00.586Z,6.10
2019-03-06T15:53:28.420Z,6.00
2019-03-06T15:55:56.636Z,5.90
2019-03-06T15:58:24.769Z,5.80
2019-03-06T16:00:52.719Z,5.70
2019-03-06T16:03:22.945Z,5.60
2019-03-06T16:05:51.020Z,5.60
2019-03-06T16:08:19.330Z,5.50
2019-03-06T16:10:47.444Z,5.60
2019-03-06T16:13:15.474Z,5.60
2019-03-06T16:15:43.309Z,5.70
2019-03-06T16:18:11.297Z,5.80
2019-03-06T16:20:39.536Z,5.90
2019-03-06T16:23:07.504Z,5.80
2019-03-06T16:25:37.994Z,5.70
2019-03-06T16:28:05.580Z,5.60
2019-03-06T16:30:33.991Z,5.50
2019-03-06T16:33:01.795Z,5.30
2019-03-06T16:35:30.588Z,5.00
2019-03-06T16:37:58.625Z,4.80
2019-03-06T16:40:27.165Z,4.60
2019-03-06T16:42:54.973Z,4.60
2019-03-06T16:45:23.574Z,4.70
2019-03-06T16:47:51.579Z,4.90
2019-03-06T16:50:19.994Z,4.90
2019-03-06T16:52:48.393Z,5.00
2019-03-06T16:55:17.385Z,5.00
2019-03-06T16:57:45.497Z,5.00
2019-03-06T17:00:19.369Z,5.00
2019-03-06T17:02:47.466Z,5.10
2019-03-06T17:05:18.033Z,5.10
2019-03-06T17:07:46.062Z,4.90
2019-03-06T17:10:15.032Z,5.10
2019-03-06T17:12:43.083Z,5.10
2019-03-06T17:15:12.775Z,5.10
2019-03-06T17:17:41.185Z,5.00
2019-03-06T17:20:09.129Z,4.90
2019-03-06T17:22:36.953Z,4.80
2019-03-06T17:25:05.986Z,4.70
2019-03-06T17:27:33.877Z,4.80
2019-03-06T17:30:07.759Z,4.60
2019-03-06T17:32:36.446Z,4.40
2019-03-06T17:35:05.682Z,4.30
2019-03-06T17:37:48.560Z,4.20
2019-03-06T17:40:17.371Z,4.40
2019-03-06T17:42:50.289Z,4.20
2019-03-06T17:45:21.579Z,4.20
2019-03-06T17:47:49.992Z,4.10
2019-03-06T17:50:19.436Z,4.00
2019-03-06T17:52:48.449Z,4.00
2019-03-06T17:55:21.595Z,4.00
2019-03-06T17:58:04.713Z,3.90
2019-03-06T18:00:48.856Z,3.90
2019-03-06T18:03:40.197Z,3.90
2019-03-06T18:06:15.940Z,3.90
2019-03-06T18:08:46.538Z,4.00
2019-03-06T18:11:14.844Z,3.80
2019-03-06T18:13:43.349Z,3.80
2019-03-06T18:16:12.476Z,3.70
2019-03-06T18:18:42.535Z,3.70
2019-03-06T18:21:19.676Z,3.70
2019-03-06T18:26:37.654Z,3.50
2019-03-06T18:29:13.917Z,3.40
2019-03-06T18:31:46.824Z,3.40
2019-03-06T18:34:21.019Z,3.40
2019-03-06T18:36:52.397Z,3.50
2019-03-06T18:39:28.766Z,3.50
2019-03-06T18:42:00.381Z,3.40
2019-03-06T18:44:33.583Z,3.50
2019-03-06T18:47:07.092Z,3.50
2019-03-06T18:49:42.770Z,3.50
2019-03-06T18:52:18.359Z,3.50
2019-03-06T18:54:51.230Z,3.40
2019-03-06T18:57:24.514Z,3.40
2019-03-06T18:59:54.425Z,3.30
2019-03-06T19:02:27.183Z,3.30
2019-03-06T19:04:59.795Z,3.30
2019-03-06T19:07:28.530Z,3.30
2019-03-06T19:09:58.241Z,3.30
2019-03-06T19:12:27.468Z,3.20
2019-03-06T19:14:59.603Z,3.20
2019-03-06T19:17:43.017Z,3.20
2019-03-06T19:20:14.686Z,3.20
2019-03-06T19:22:48.562Z,3.20
2019-03-06T19:25:26.067Z,3.20
2019-03-06T19:28:03.433Z,3.10
2019-03-06T19:30:38.919Z,3.10
2019-03-06T19:33:20.568Z,3.10
2019-03-06T19:35:53.786Z,3.10
2019-03-06T19:38:26.128Z,3.10
2019-03-06T19:40:55.203Z,3.10
2019-03-06T19:43:38.067Z,3.10
2019-03-06T19:46:13.963Z,3.10
2019-03-06T19:48:48.773Z,3.00
2019-03-06T19:51:20.379Z,3.10
2019-03-06T19:53:59.805Z,3.00
2019-03-06T19:56:29.350Z,3.00
2019-03-06T19:59:00.538Z,2.80
2019-03-06T20:01:45.821Z,2.80
2019-03-06T20:04:11.223Z,3.00
2019-03-06T20:06:39.711Z,2.90
2019-03-06T20:09:29.317Z,3.00
2019-03-06T20:11:57.807Z,3.00
2019-03-06T20:14:58.595Z,3.00
2019-03-06T20:17:28.424Z,3.00
2019-03-06T20:20:17.063Z,2.90
2019-03-06T20:22:48.290Z,2.80
2019-03-06T20:25:26.666Z,3.00
2019-03-06T20:28:25.315Z,2.80
2019-03-06T20:30:56.741Z,2.80
2019-03-06T20:33:31.937Z,2.70
2019-03-06T20:36:21.920Z,2.70
2019-03-06T20:38:54.764Z,2.60
2019-03-06T20:41:29.963Z,2.60
2019-03-06T20:44:05.809Z,2.60
2019-03-06T20:46:36.884Z,2.50
2019-03-06T20:49:18.684Z,2.50
2019-03-06T20:51:54.650Z,2.40
2019-03-06T20:54:37.986Z,2.40
2019-03-06T20:57:05.501Z,2.30
2019-03-06T20:59:34.599Z,2.50
2019-03-06T21:02:28.628Z,2.50
2019-03-06T21:04:57.501Z,2.50
2019-03-06T21:07:38.247Z,2.50
2019-03-06T21:10:08.077Z,2.40
2019-03-06T21:12:37.185Z,2.40
2019-03-06T21:15:09.787Z,2.60
2019-03-06T21:17:40.601Z,2.50
2019-03-06T21:20:19.890Z,2.50
2019-03-06T21:22:54.767Z,2.50
2019-03-06T21:25:34.826Z,2.50
2019-03-06T21:28:07.346Z,2.50
2019-03-06T21:31:00.353Z,2.50
2019-03-06T21:33:28.935Z,2.40
2019-03-06T21:36:01.231Z,2.40
2019-03-06T21:38:33.194Z,2.40
2019-03-06T21:41:05.914Z,2.30
2019-03-06T21:43:35.816Z,2.20
2019-03-06T21:46:12.013Z,2.40
2019-03-06T21:48:43.445Z,2.30
2019-03-06T21:51:11.825Z,2.20
2019-03-06T21:53:46.758Z,2.20
2019-03-06T21:56:16.451Z,2.30
2019-03-06T21:58:47.875Z,2.30
2019-03-06T22:01:31.355Z,2.30
2019-03-06T22:04:00.023Z,2.40
2019-03-06T22:06:33.360Z,2.40
2019-03-06T22:09:06.541Z,2.30
2019-03-06T22:11:36.566Z,2.30
2019-03-06T22:14:11.945Z,2.30
2019-03-06T22:16:41.633Z,2.30
2019-03-06T22:19:13.911Z,2.20
2019-03-06T22:21:47.381Z,2.30
2019-03-06T22:24:22.514Z,2.30
2019-03-06T22:26:58.464Z,2.30
2019-03-06T22:29:28.131Z,2.40
2019-03-06T22:31:56.549Z,2.20
2019-03-06T22:34:29.868Z,2.30
2019-03-06T22:37:05.021Z,2.20
2019-03-06T22:39:50.772Z,2.20
2019-03-06T22:42:19.475Z,2.20
2019-03-06T22:44:52.425Z,2.20
2019-03-06T22:47:21.412Z,2.20
2019-03-06T22:49:54.153Z,2.30
2019-03-06T22:52:32.227Z,2.30
2019-03-06T22:55:04.502Z,2.40
2019-03-06T22:57:36.127Z,2.30
2019-03-06T23:00:29.684Z,2.40
2019-03-06T23:02:59.905Z,2.40
2019-03-06T23:05:33.110Z,2.30
2019-03-06T23:08:08.449Z,2.20
2019-03-06T23:10:36.842Z,2.20
2019-03-06T23:13:07.472Z,2.20
2019-03-06T23:15:35.904Z,2.30
2019-03-06T23:18:09.975Z,2.10
2019-03-06T23:20:38.970Z,2.20
2019-03-06T23:23:13.059Z,2.20
2019-03-06T23:25:41.412Z,2.20
2019-03-06T23:28:12.806Z,2.20
2019-03-06T23:30:41.349Z,2.30
2019-03-06T23:33:09.654Z,2.40
2019-03-06T23:35:47.708Z,2.30
2019-03-06T23:38:25.559Z,2.40
2019-03-06T23:40:54.369Z,2.60
2019-03-06T23:43:23.008Z,2.50
2019-03-06T23:45:55.982Z,2.20
2019-03-06T23:48:27.732Z,2.20
2019-03-06T23:50:56.078Z,2.30
2019-03-06T23:53:47.418Z,2.30
2019-03-06T23:56:19.588Z,2.30
2019-03-06T23:58:54.998Z,2.20
